createdAt,value
2018-02-18T00:00:16.653Z,91.52
2018-02-18T00:00:57.181Z,91.42
2018-02-18T00:01:37.714Z,91.42
2018-02-18T00:02:18.265Z,91.42
2018-02-18T00:02:58.821Z,91.33
2018-02-18T00:03:39.386Z,90.85
2018-02-18T00:04:19.961Z,90.85
2018-02-18T00:05:00.531Z,91.14
2018-02-18T00:05:41.097Z,91.33
2018-02-18T00:06:21.653Z,90.19
2018-02-18T00:07:02.241Z,90.47
2018-02-18T00:07:42.814Z,90.66
2018-02-18T00:08:23.416Z,90.76
2018-02-18T00:09:03.925Z,90.76
2018-02-18T00:09:44.508Z,90.28
2018-02-18T00:10:25.066Z,90.57
2018-02-18T00:11:05.635Z,90.28
2018-02-18T00:11:46.172Z,89.81
2018-02-18T00:12:26.717Z,90.38
2018-02-18T00:13:07.252Z,89.9
2018-02-18T00:13:47.816Z,89.72
2018-02-18T00:14:28.425Z,89.72
2018-02-18T00:15:08.926Z,89.81
2018-02-18T00:15:49.495Z,89.9
2018-02-18T00:16:30.054Z,89.72
2018-02-18T00:17:10.611Z,89.62
2018-02-18T00:17:51.169Z,90
2018-02-18T00:18:31.742Z,89.72
2018-02-18T00:19:12.310Z,89.72
2018-02-18T00:19:52.881Z,89.72
2018-02-18T00:20:33.447Z,89.53
2018-02-18T00:21:14.011Z,89.9
2018-02-18T00:21:54.551Z,89.72
2018-02-18T00:22:35.099Z,89.53
2018-02-18T00:23:15.648Z,89.53
2018-02-18T00:23:56.217Z,90.19
2018-02-18T00:24:36.758Z,90.38
2018-02-18T00:25:17.321Z,90.19
2018-02-18T00:25:57.919Z,90.09
2018-02-18T00:26:38.455Z,90.19
2018-02-18T00:27:19.012Z,90.09
2018-02-18T00:27:59.581Z,90
2018-02-18T00:28:40.146Z,89.9
2018-02-18T00:29:20.698Z,90.19
2018-02-18T00:30:01.270Z,90.19
2018-02-18T00:30:41.834Z,90.14
2018-02-18T00:31:22.387Z,89.95
2018-02-18T00:32:02.966Z,90
2018-02-18T00:32:43.528Z,89.72
2018-02-18T00:33:24.091Z,89.9
2018-02-18T00:34:04.651Z,89.67
2018-02-18T00:34:45.229Z,89.72
2018-02-18T00:35:25.802Z,89.9
2018-02-18T00:36:06.362Z,90
2018-02-18T00:36:46.908Z,89.72
2018-02-18T00:37:27.479Z,89.76
2018-02-18T00:38:08.047Z,89.53
2018-02-18T00:38:48.620Z,89.29
2018-02-18T00:39:29.180Z,89.62
2018-02-18T00:40:09.742Z,89.86
2018-02-18T00:40:50.310Z,89.67
2018-02-18T00:41:30.860Z,89.53
2018-02-18T00:42:11.411Z,89.95
2018-02-18T00:42:51.970Z,90.05
2018-02-18T00:43:32.540Z,89.86
2018-02-18T00:44:13.104Z,90.14
2018-02-18T00:44:53.663Z,89.81
2018-02-18T00:45:34.231Z,89.2
2018-02-18T00:46:14.785Z,89.33
2018-02-18T00:46:55.339Z,89.48
2018-02-18T00:47:35.908Z,89.39
2018-02-18T00:48:16.464Z,89.24
2018-02-18T00:48:57.011Z,89.62
2018-02-18T00:49:37.581Z,89.24
2018-02-18T00:50:18.130Z,89.29
2018-02-18T00:50:58.697Z,89.58
2018-02-18T00:51:39.261Z,89.62
2018-02-18T00:52:19.824Z,89.43
2018-02-18T00:53:00.365Z,89.72
2018-02-18T00:53:40.915Z,89.67
2018-02-18T00:54:21.467Z,89.9
2018-02-18T00:55:02.024Z,89.72
2018-02-18T00:55:42.602Z,90
2018-02-18T00:56:23.165Z,89.62
2018-02-18T00:57:03.736Z,89.72
2018-02-18T00:57:44.271Z,89.53
2018-02-18T00:58:24.818Z,89.48
2018-02-18T00:59:05.376Z,90.09
2018-02-18T00:59:45.928Z,89.33
2018-02-18T01:00:26.477Z,89.62
2018-02-18T01:01:07.087Z,89.62
2018-02-18T01:01:47.636Z,89.39
2018-02-18T01:02:28.190Z,89.58
2018-02-18T01:03:08.745Z,89.14
2018-02-18T01:03:50.060Z,89.43
2018-02-18T01:04:30.617Z,89.33
2018-02-18T01:05:11.196Z,89.43
2018-02-18T01:05:51.779Z,88.95
2018-02-18T01:06:32.344Z,89.05
2018-02-18T01:07:12.889Z,89.2
2018-02-18T01:07:53.456Z,88.76
2018-02-18T01:08:34.664Z,89
2018-02-18T01:09:15.209Z,89.33
2018-02-18T01:09:55.885Z,88.76
2018-02-18T01:10:36.579Z,89.58
2018-02-18T01:11:17.936Z,89.53
2018-02-18T01:11:58.933Z,88.67
2018-02-18T01:12:38.815Z,88.81
2018-02-18T01:13:19.364Z,89.33
2018-02-18T01:13:59.958Z,88.81
2018-02-18T01:14:40.538Z,88.81
2018-02-18T01:15:21.088Z,88.91
2018-02-18T01:16:01.650Z,89
2018-02-18T01:16:42.228Z,88.72
2018-02-18T01:17:22.811Z,88.53
2018-02-18T01:18:03.370Z,88.86
2018-02-18T01:18:43.931Z,88.67
2018-02-18T01:19:24.498Z,88.86
2018-02-18T01:20:05.119Z,88.81
2018-02-18T01:20:45.651Z,88.62
2018-02-18T01:21:26.239Z,88.62
2018-02-18T01:22:07.674Z,88.67
2018-02-18T01:22:49.432Z,88.76
2018-02-18T01:23:30.455Z,88.86
2018-02-18T01:24:11.011Z,88.76
2018-02-18T01:24:51.588Z,88.72
2018-02-18T01:25:32.137Z,88.86
2018-02-18T01:26:12.677Z,88.53
2018-02-18T01:26:54.939Z,88.62
2018-02-18T01:27:35.517Z,89.29
2018-02-18T01:28:16.085Z,89.48
2018-02-18T01:28:56.820Z,89.39
2018-02-18T01:29:37.371Z,89.39
2018-02-18T01:30:17.932Z,89.29
2018-02-18T01:30:58.493Z,89.48
2018-02-18T01:31:39.063Z,89.76
2018-02-18T01:32:19.593Z,89.95
2018-02-18T01:33:00.164Z,89.58
2018-02-18T01:33:41.571Z,89.58
2018-02-18T01:34:22.086Z,89.67
2018-02-18T01:35:02.688Z,89.48
2018-02-18T01:35:43.244Z,89.67
2018-02-18T01:36:23.831Z,89.76
2018-02-18T01:37:04.395Z,89.76
2018-02-18T01:37:44.938Z,89.48
2018-02-18T01:38:26.936Z,89.76
2018-02-18T01:39:06.696Z,89.76
2018-02-18T01:39:47.278Z,90.33
2018-02-18T01:40:27.809Z,89.95
2018-02-18T01:41:09.693Z,89.58
2018-02-18T01:41:50.242Z,89.67
2018-02-18T01:42:30.805Z,90.43
2018-02-18T01:43:11.357Z,89.95
2018-02-18T01:43:52.585Z,89.86
2018-02-18T01:44:33.183Z,90.33
2018-02-18T01:45:14.436Z,90.05
2018-02-18T01:45:54.234Z,89.95
2018-02-18T01:46:34.800Z,89.48
2018-02-18T01:47:15.356Z,89.67
2018-02-18T01:47:55.917Z,89.67
2018-02-18T01:48:36.472Z,89.39
2018-02-18T01:49:17.015Z,89.76
2018-02-18T01:49:57.571Z,89.95
2018-02-18T01:50:38.123Z,89.86
2018-02-18T01:51:18.680Z,89.48
2018-02-18T01:51:59.220Z,90.14
2018-02-18T01:52:39.742Z,89.86
2018-02-18T01:53:20.324Z,89.48
2018-02-18T01:54:00.806Z,89.39
2018-02-18T01:54:41.341Z,89.95
2018-02-18T01:55:21.861Z,90.43
2018-02-18T01:56:02.344Z,89.67
2018-02-18T01:56:42.931Z,90.14
2018-02-18T01:57:23.448Z,89.48
2018-02-18T01:58:03.994Z,90.05
2018-02-18T01:58:45.186Z,90.52
2018-02-18T01:59:25.736Z,90.05
2018-02-18T02:00:07.227Z,90.33
2018-02-18T02:00:48.940Z,90.62
2018-02-18T02:01:28.344Z,90.43
2018-02-18T02:02:09.446Z,90.33
2018-02-18T02:02:50.950Z,90.52
2018-02-18T02:03:30.596Z,90.24
2018-02-18T02:04:11.942Z,90.33
2018-02-18T02:04:51.693Z,90.43
2018-02-18T02:05:32.259Z,90.33
2018-02-18T02:06:12.807Z,90.14
2018-02-18T02:06:53.287Z,90.33
2018-02-18T02:07:35.595Z,90.33
2018-02-18T02:08:16.141Z,90.33
2018-02-18T02:08:56.702Z,90.14
2018-02-18T02:09:37.260Z,90.05
2018-02-18T02:10:17.795Z,90.81
2018-02-18T02:10:58.338Z,90.33
2018-02-18T02:11:38.881Z,90.33
2018-02-18T02:12:19.382Z,90.62
2018-02-18T02:12:59.961Z,90.62
2018-02-18T02:13:40.492Z,90.62
2018-02-18T02:14:20.995Z,90.62
2018-02-18T02:15:01.522Z,90.33
2018-02-18T02:15:42.054Z,90.33
2018-02-18T02:16:23.265Z,90.43
2018-02-18T02:17:03.759Z,90.62
2018-02-18T02:17:44.270Z,90.24
2018-02-18T02:18:24.818Z,90.43
2018-02-18T02:19:05.353Z,90.33
2018-02-18T02:19:45.911Z,90.05
2018-02-18T02:20:26.448Z,90.14
2018-02-18T02:21:07.448Z,90.05
2018-02-18T02:21:47.506Z,89.86
2018-02-18T02:22:28.074Z,89.95
2018-02-18T02:23:08.625Z,90.14
2018-02-18T02:23:49.120Z,90.52
2018-02-18T02:24:30.311Z,90.14
2018-02-18T02:25:10.793Z,90.33
2018-02-18T02:25:51.323Z,90.52
2018-02-18T02:26:32.587Z,90.52
2018-02-18T02:27:13.053Z,90.14
2018-02-18T02:27:53.601Z,89.48
2018-02-18T02:28:34.138Z,89.48
2018-02-18T02:29:14.678Z,89.76
2018-02-18T02:29:55.221Z,89.67
2018-02-18T02:30:35.749Z,90.43
2018-02-18T02:31:16.290Z,90.43
2018-02-18T02:31:56.778Z,89.95
2018-02-18T02:32:37.331Z,89.95
2018-02-18T02:33:17.878Z,90.24
2018-02-18T02:33:58.441Z,90.43
2018-02-18T02:34:39.029Z,90.52
2018-02-18T02:35:19.534Z,90.33
2018-02-18T02:36:00.108Z,90.43
2018-02-18T02:36:40.594Z,90.24
2018-02-18T02:37:21.121Z,90.33
2018-02-18T02:38:01.678Z,90.14
2018-02-18T02:38:42.178Z,89.48
2018-02-18T02:39:25.265Z,89.76
2018-02-18T02:40:05.791Z,89.86
2018-02-18T02:40:46.330Z,89.48
2018-02-18T02:41:26.888Z,89.86
2018-02-18T02:42:07.409Z,89.48
2018-02-18T02:42:47.931Z,89.58
2018-02-18T02:43:28.487Z,90.05
2018-02-18T02:44:09.080Z,89.58
2018-02-18T02:44:49.629Z,89.48
2018-02-18T02:45:30.215Z,90.05
2018-02-18T02:46:10.770Z,89.76
2018-02-18T02:46:51.346Z,89.86
2018-02-18T02:47:31.882Z,89.67
2018-02-18T02:48:12.504Z,89.67
2018-02-18T02:48:53.956Z,89.39
2018-02-18T02:49:33.546Z,89.29
2018-02-18T02:50:14.120Z,89.29
2018-02-18T02:50:54.679Z,89.67
2018-02-18T02:51:35.244Z,89.29
2018-02-18T02:52:15.918Z,89.76
2018-02-18T02:52:56.352Z,89.48
2018-02-18T02:53:36.912Z,89
2018-02-18T02:54:17.472Z,89.29
2018-02-18T02:54:58.036Z,88.91
2018-02-18T02:55:39.091Z,89
2018-02-18T02:56:19.687Z,89.48
2018-02-18T02:57:00.256Z,89
2018-02-18T02:57:40.816Z,89.2
2018-02-18T02:58:21.389Z,89.39
2018-02-18T02:59:01.941Z,89.48
2018-02-18T02:59:42.495Z,89.1
2018-02-18T03:00:23.057Z,89.58
2018-02-18T03:01:03.614Z,89.29
2018-02-18T03:01:44.180Z,89.67
2018-02-18T03:02:24.746Z,89.29
2018-02-18T03:03:05.316Z,89.76
2018-02-18T03:03:45.885Z,89.58
2018-02-18T03:04:26.436Z,89.2
2018-02-18T03:05:06.985Z,89.58
2018-02-18T03:05:47.545Z,89.86
2018-02-18T03:06:28.958Z,90.05
2018-02-18T03:07:09.536Z,90.05
2018-02-18T03:07:50.125Z,90
2018-02-18T03:08:30.686Z,89.95
2018-02-18T03:09:11.246Z,89.86
2018-02-18T03:09:51.804Z,90.14
2018-02-18T03:10:32.358Z,89.76
2018-02-18T03:11:12.915Z,89.86
2018-02-18T03:11:53.476Z,89.67
2018-02-18T03:12:34.020Z,89.67
2018-02-18T03:13:14.585Z,89.72
2018-02-18T03:13:55.155Z,90.05
2018-02-18T03:14:35.708Z,89.95
2018-02-18T03:15:16.285Z,90.14
2018-02-18T03:15:56.847Z,90.24
2018-02-18T03:16:37.404Z,89.48
2018-02-18T03:17:17.983Z,90.52
2018-02-18T03:17:58.536Z,90.52
2018-02-18T03:18:39.090Z,89.86
2018-02-18T03:19:19.627Z,89.67
2018-02-18T03:20:00.200Z,89.76
2018-02-18T03:20:40.769Z,89.67
2018-02-18T03:21:21.333Z,89.48
2018-02-18T03:22:01.899Z,89.76
2018-02-18T03:22:42.456Z,89.29
2018-02-18T03:23:23.038Z,89.39
2018-02-18T03:24:03.610Z,89.86
2018-02-18T03:24:44.145Z,89.48
2018-02-18T03:25:24.731Z,89.39
2018-02-18T03:26:05.290Z,89.58
2018-02-18T03:26:45.837Z,89
2018-02-18T03:27:26.401Z,88.91
2018-02-18T03:28:06.964Z,88.91
2018-02-18T03:28:47.518Z,89.48
2018-02-18T03:29:31.971Z,88.91
2018-02-18T03:30:12.520Z,89.2
2018-02-18T03:30:53.069Z,89.1
2018-02-18T03:31:34.462Z,89.1
2018-02-18T03:32:15.015Z,89.1
2018-02-18T03:32:55.562Z,88.96
2018-02-18T03:33:36.137Z,89.15
2018-02-18T03:34:16.692Z,89.43
2018-02-18T03:34:57.256Z,90
2018-02-18T03:35:37.807Z,89.62
2018-02-18T03:36:18.396Z,89.53
2018-02-18T03:36:58.934Z,89.53
2018-02-18T03:37:39.503Z,89.62
2018-02-18T03:38:20.050Z,89.43
2018-02-18T03:39:00.623Z,89.25
2018-02-18T03:39:41.179Z,89.15
2018-02-18T03:40:21.769Z,89.53
2018-02-18T03:41:02.343Z,89.62
2018-02-18T03:41:42.900Z,89.34
2018-02-18T03:42:23.465Z,89.53
2018-02-18T03:43:04.034Z,89.06
2018-02-18T03:43:44.583Z,88.68
2018-02-18T03:44:25.148Z,88.77
2018-02-18T03:45:05.703Z,89.15
2018-02-18T03:45:46.258Z,89.53
2018-02-18T03:46:26.825Z,88.58
2018-02-18T03:47:07.358Z,88.58
2018-02-18T03:47:47.910Z,88.29
2018-02-18T03:48:28.477Z,88.39
2018-02-18T03:49:09.030Z,88.58
2018-02-18T03:49:49.592Z,88.39
2018-02-18T03:50:30.148Z,88.68
2018-02-18T03:51:10.674Z,87.82
2018-02-18T03:51:51.285Z,87.92
2018-02-18T03:52:31.847Z,87.92
2018-02-18T03:53:12.424Z,88.2
2018-02-18T03:53:52.990Z,87.63
2018-02-18T03:54:33.535Z,87.92
2018-02-18T03:55:14.100Z,88.58
2018-02-18T03:55:54.668Z,88.77
2018-02-18T03:56:35.221Z,88.96
2018-02-18T03:57:15.759Z,88.77
2018-02-18T03:57:56.320Z,88.87
2018-02-18T03:58:36.870Z,88.1
2018-02-18T03:59:17.437Z,88.1
2018-02-18T03:59:57.998Z,88.48
2018-02-18T04:00:38.554Z,88.48
2018-02-18T04:01:19.118Z,88.29
2018-02-18T04:01:59.671Z,89.15
2018-02-18T04:02:40.839Z,88.58
2018-02-18T04:03:36.144Z,89.06
2018-02-18T04:04:16.710Z,88.58
2018-02-18T04:04:57.260Z,88.48
2018-02-18T04:05:37.816Z,88.87
2018-02-18T04:06:18.968Z,88.77
2018-02-18T04:06:58.918Z,88.87
2018-02-18T04:07:39.474Z,88.68
2018-02-18T04:08:20.035Z,89.06
2018-02-18T04:09:00.590Z,89.43
2018-02-18T04:09:41.146Z,89.25
2018-02-18T04:10:21.713Z,89.53
2018-02-18T04:11:02.253Z,89.53
2018-02-18T04:11:42.793Z,89.34
2018-02-18T04:12:23.355Z,89.43
2018-02-18T04:13:03.901Z,89.72
2018-02-18T04:13:44.461Z,89.43
2018-02-18T04:14:25.016Z,89.72
2018-02-18T04:15:05.573Z,90.38
2018-02-18T04:15:46.163Z,90.1
2018-02-18T04:16:26.715Z,90.67
2018-02-18T04:17:07.273Z,90.48
2018-02-18T04:17:50.544Z,90.57
2018-02-18T04:18:32.046Z,90.57
2018-02-18T04:19:13.479Z,90.48
2018-02-18T04:20:03.770Z,90.1
2018-02-18T04:20:44.351Z,90.38
2018-02-18T04:21:32.713Z,90.38
2018-02-18T04:22:13.266Z,90.57
2018-02-18T04:22:53.857Z,90.29
2018-02-18T04:23:34.408Z,90.57
2018-02-18T04:24:14.965Z,90.57
2018-02-18T04:24:55.543Z,90.57
2018-02-18T04:25:36.105Z,90.38
2018-02-18T04:26:16.666Z,90.95
2018-02-18T04:26:57.216Z,91.24
2018-02-18T04:27:37.788Z,91.33
2018-02-18T04:28:18.336Z,91.52
2018-02-18T04:28:58.893Z,91.71
2018-02-18T04:29:39.441Z,91.33
2018-02-18T04:30:19.994Z,91.42
2018-02-18T04:31:00.554Z,90.86
2018-02-18T04:31:41.115Z,90.95
2018-02-18T04:32:21.688Z,91.24
2018-02-18T04:33:02.239Z,91.14
2018-02-18T04:33:42.806Z,91.61
2018-02-18T04:34:23.338Z,91.52
2018-02-18T04:35:03.904Z,91.42
2018-02-18T04:35:44.487Z,91.24
2018-02-18T04:36:25.060Z,90.67
2018-02-18T04:37:05.634Z,90.86
2018-02-18T04:37:46.186Z,90.57
2018-02-18T04:38:26.744Z,90.38
2018-02-18T04:39:07.306Z,90.86
2018-02-18T04:39:47.863Z,90.57
2018-02-18T04:40:28.430Z,91.05
2018-02-18T04:41:08.998Z,90.86
2018-02-18T04:41:49.555Z,90.95
2018-02-18T04:42:30.124Z,90.86
2018-02-18T04:43:10.660Z,90.86
2018-02-18T04:43:51.217Z,90.76
2018-02-18T04:44:31.787Z,91.14
2018-02-18T04:45:12.354Z,91.05
2018-02-18T04:45:52.924Z,91.33
2018-02-18T04:46:33.486Z,91.33
2018-02-18T04:47:14.050Z,91.24
2018-02-18T04:47:54.598Z,90.76
2018-02-18T04:48:35.168Z,91.05
2018-02-18T04:49:15.721Z,90.48
2018-02-18T04:49:56.288Z,90.29
2018-02-18T04:50:43.165Z,90.72
2018-02-18T04:51:23.701Z,91.28
2018-02-18T04:52:06.480Z,91.61
2018-02-18T04:52:49.982Z,90.86
2018-02-18T04:53:30.534Z,90.86
2018-02-18T04:54:11.084Z,90.19
2018-02-18T04:54:51.642Z,90.34
2018-02-18T04:55:32.200Z,90.05
2018-02-18T04:56:12.734Z,90.53
2018-02-18T04:56:53.285Z,90.24
2018-02-18T04:57:33.849Z,90.81
2018-02-18T04:58:14.417Z,90.95
2018-02-18T04:58:54.979Z,90.38
2018-02-18T04:59:35.565Z,90.29
2018-02-18T05:00:16.134Z,90.1
2018-02-18T05:00:56.713Z,89.67
2018-02-18T05:01:37.264Z,89.67
2018-02-18T05:02:17.811Z,90.43
2018-02-18T05:02:58.375Z,89.96
2018-02-18T05:03:38.935Z,90.05
2018-02-18T05:04:19.475Z,90.24
2018-02-18T05:05:00.025Z,90.05
2018-02-18T05:05:40.612Z,90.43
2018-02-18T05:06:21.145Z,90.91
2018-02-18T05:07:01.703Z,91.09
2018-02-18T05:07:42.246Z,90.34
2018-02-18T05:08:26.490Z,90.43
2018-02-18T05:09:05.800Z,90.34
2018-02-18T05:09:49.163Z,89.96
2018-02-18T05:10:29.726Z,90.43
2018-02-18T05:11:10.972Z,90.53
2018-02-18T05:11:51.528Z,90.62
2018-02-18T05:12:32.661Z,90.43
2018-02-18T05:13:13.213Z,90.34
2018-02-18T05:13:53.762Z,89.96
2018-02-18T05:14:34.332Z,89.39
2018-02-18T05:15:14.892Z,89.96
2018-02-18T05:15:55.452Z,89.39
2018-02-18T05:16:36.028Z,89.48
2018-02-18T05:17:16.598Z,89.25
2018-02-18T05:17:57.161Z,89.34
2018-02-18T05:18:37.717Z,89.43
2018-02-18T05:19:18.277Z,88.68
2018-02-18T05:19:58.863Z,88.58
2018-02-18T05:20:39.425Z,88.87
2018-02-18T05:21:19.991Z,88.77
2018-02-18T05:22:00.566Z,88.2
2018-02-18T05:22:41.123Z,88.29
2018-02-18T05:23:21.680Z,88.29
2018-02-18T05:24:02.245Z,88.01
2018-02-18T05:24:42.804Z,88.39
2018-02-18T05:25:23.369Z,88.39
2018-02-18T05:26:03.935Z,88.01
2018-02-18T05:26:44.499Z,87.82
2018-02-18T05:27:25.052Z,88.48
2018-02-18T05:28:05.617Z,88.68
2018-02-18T05:28:46.182Z,88.87
2018-02-18T05:29:26.761Z,88.96
2018-02-18T05:30:07.326Z,88.48
2018-02-18T05:30:47.876Z,88.29
2018-02-18T05:31:28.442Z,88.01
2018-02-18T05:32:09.015Z,88.01
2018-02-18T05:32:49.565Z,87.54
2018-02-18T05:33:30.140Z,87.54
2018-02-18T05:34:10.692Z,88.48
2018-02-18T05:34:51.248Z,88.06
2018-02-18T05:35:31.809Z,88.54
2018-02-18T05:36:12.373Z,89.86
2018-02-18T05:36:52.904Z,89.96
2018-02-18T05:37:33.464Z,90.05
2018-02-18T05:38:14.022Z,90.15
2018-02-18T05:38:54.593Z,89.58
2018-02-18T05:39:35.143Z,89.2
2018-02-18T05:40:15.688Z,88.63
2018-02-18T05:40:56.249Z,88.54
2018-02-18T05:41:36.812Z,89.01
2018-02-18T05:42:17.405Z,89.01
2018-02-18T05:42:57.964Z,89.39
2018-02-18T05:43:38.520Z,88.92
2018-02-18T05:44:19.080Z,88.73
2018-02-18T05:44:59.641Z,88.16
2018-02-18T05:45:40.192Z,88.06
2018-02-18T05:46:20.756Z,87.68
2018-02-18T05:47:01.318Z,87.68
2018-02-18T05:47:41.874Z,88.44
2018-02-18T05:48:22.441Z,88.44
2018-02-18T05:49:03.007Z,88.73
2018-02-18T05:49:43.589Z,88.63
2018-02-18T05:50:24.134Z,88.25
2018-02-18T05:51:04.696Z,87.97
2018-02-18T05:51:45.261Z,88.06
2018-02-18T05:52:25.820Z,88.16
2018-02-18T05:53:06.370Z,87.97
2018-02-18T05:53:46.916Z,87.87
2018-02-18T05:54:27.465Z,87.87
2018-02-18T05:55:08.040Z,87.68
2018-02-18T05:55:48.591Z,88.06
2018-02-18T05:56:29.157Z,87.68
2018-02-18T05:57:09.706Z,87.49
2018-02-18T05:57:50.259Z,87.4
2018-02-18T05:58:30.827Z,87.77
2018-02-18T05:59:11.370Z,87.97
2018-02-18T05:59:51.944Z,87.87
2018-02-18T06:00:32.493Z,87.68
2018-02-18T06:01:13.799Z,87.73
2018-02-18T06:01:54.372Z,87.92
2018-02-18T06:02:34.937Z,88.01
2018-02-18T06:03:15.496Z,87.82
2018-02-18T06:03:56.048Z,88.1
2018-02-18T06:04:36.595Z,87.45
2018-02-18T06:05:17.152Z,88.2
2018-02-18T06:05:57.721Z,88.16
2018-02-18T06:06:38.287Z,87.82
2018-02-18T06:07:18.849Z,88.1
2018-02-18T06:07:59.414Z,87.92
2018-02-18T06:08:39.967Z,87.82
2018-02-18T06:09:20.522Z,87.87
2018-02-18T06:10:01.076Z,87.54
2018-02-18T06:10:41.633Z,87.21
2018-02-18T06:11:22.187Z,87.59
2018-02-18T06:12:02.739Z,87.4
2018-02-18T06:12:43.311Z,87.68
2018-02-18T06:13:23.867Z,88.2
2018-02-18T06:14:04.425Z,88.1
2018-02-18T06:14:44.999Z,87.92
2018-02-18T06:15:25.579Z,87.82
2018-02-18T06:16:06.110Z,87.82
2018-02-18T06:16:46.673Z,87.73
2018-02-18T06:17:27.218Z,87.82
2018-02-18T06:18:07.766Z,87.82
2018-02-18T06:18:48.312Z,87.92
2018-02-18T06:19:28.904Z,87.4
2018-02-18T06:20:09.462Z,87.73
2018-02-18T06:20:50.021Z,87.12
2018-02-18T06:21:30.531Z,87.45
2018-02-18T06:22:11.095Z,87.3
2018-02-18T06:22:51.647Z,87.12
2018-02-18T06:23:32.186Z,87.3
2018-02-18T06:24:12.761Z,87.87
2018-02-18T06:24:53.322Z,88.16
2018-02-18T06:25:33.885Z,87.77
2018-02-18T06:26:14.443Z,87.92
2018-02-18T06:26:55.000Z,87.59
2018-02-18T06:27:35.564Z,87.87
2018-02-18T06:28:16.132Z,87.77
2018-02-18T06:28:56.683Z,87.87
2018-02-18T06:29:37.237Z,88.54
2018-02-18T06:30:17.793Z,87.77
2018-02-18T06:30:58.345Z,87.87
2018-02-18T06:31:38.903Z,87.87
2018-02-18T06:32:19.478Z,87.97
2018-02-18T06:33:00.036Z,87.87
2018-02-18T06:33:40.596Z,87.4
2018-02-18T06:34:21.162Z,87.68
2018-02-18T06:35:01.719Z,87.77
2018-02-18T06:35:42.258Z,87.87
2018-02-18T06:36:22.820Z,87.82
2018-02-18T06:37:03.374Z,87.25
2018-02-18T06:37:43.942Z,86.83
2018-02-18T06:38:24.494Z,87.87
2018-02-18T06:39:05.055Z,88.16
2018-02-18T06:39:45.661Z,88.06
2018-02-18T06:40:26.162Z,86.93
2018-02-18T06:41:06.712Z,86.45
2018-02-18T06:41:47.271Z,86.64
2018-02-18T06:42:27.828Z,87.12
2018-02-18T06:43:08.393Z,86.64
2018-02-18T06:43:48.936Z,86.74
2018-02-18T06:44:29.503Z,86.83
2018-02-18T06:45:10.091Z,87.21
2018-02-18T06:45:50.652Z,86.93
2018-02-18T06:46:31.209Z,86.74
2018-02-18T06:47:11.769Z,86.64
2018-02-18T06:47:52.339Z,86.93
2018-02-18T06:48:32.892Z,86.83
2018-02-18T06:49:13.445Z,87.02
2018-02-18T06:49:54.056Z,87.12
2018-02-18T06:50:34.563Z,87.12
2018-02-18T06:51:15.149Z,86.83
2018-02-18T06:51:55.698Z,87.12
2018-02-18T06:52:36.257Z,86.74
2018-02-18T06:53:16.811Z,86.64
2018-02-18T06:53:57.368Z,86.83
2018-02-18T06:54:37.921Z,87.02
2018-02-18T06:55:18.484Z,87.12
2018-02-18T06:55:59.037Z,86.83
2018-02-18T06:56:39.598Z,86.83
2018-02-18T06:57:20.155Z,87.02
2018-02-18T06:58:00.721Z,87.12
2018-02-18T06:58:41.287Z,86.83
2018-02-18T06:59:21.858Z,86.93
2018-02-18T07:00:02.410Z,87.21
2018-02-18T07:00:42.986Z,87.21
2018-02-18T07:01:23.547Z,87.4
2018-02-18T07:02:04.113Z,87.49
2018-02-18T07:02:44.679Z,86.78
2018-02-18T07:03:25.244Z,86.87
2018-02-18T07:04:05.807Z,86.87
2018-02-18T07:04:46.361Z,87.06
2018-02-18T07:05:26.918Z,87.16
2018-02-18T07:06:07.475Z,87.25
2018-02-18T07:06:48.038Z,86.45
2018-02-18T07:07:28.597Z,86.83
2018-02-18T07:08:09.135Z,86.55
2018-02-18T07:08:49.714Z,86.45
2018-02-18T07:09:30.244Z,86.55
2018-02-18T07:10:10.803Z,86.07
2018-02-18T07:10:51.364Z,86.35
2018-02-18T07:11:31.945Z,86.45
2018-02-18T07:12:12.504Z,86.55
2018-02-18T07:12:53.056Z,87.02
2018-02-18T07:13:33.630Z,86.64
2018-02-18T07:14:14.187Z,86.55
2018-02-18T07:14:54.742Z,86.26
2018-02-18T07:15:35.303Z,86.07
2018-02-18T07:16:15.858Z,86.07
2018-02-18T07:16:56.447Z,85.69
2018-02-18T07:17:37.014Z,85.69
2018-02-18T07:18:17.536Z,85.88
2018-02-18T07:18:58.090Z,85.97
2018-02-18T07:19:38.653Z,85.88
2018-02-18T07:20:19.233Z,86.6
2018-02-18T07:20:59.780Z,86.83
2018-02-18T07:21:40.348Z,86.83
2018-02-18T07:22:20.898Z,86.55
2018-02-18T07:23:01.445Z,86.93
2018-02-18T07:23:41.984Z,86.55
2018-02-18T07:24:22.549Z,85.97
2018-02-18T07:25:03.106Z,86.35
2018-02-18T07:25:43.651Z,86.16
2018-02-18T07:26:24.191Z,86.07
2018-02-18T07:27:04.748Z,86.07
2018-02-18T07:27:45.294Z,85.97
2018-02-18T07:28:25.839Z,85.5
2018-02-18T07:29:06.410Z,85.5
2018-02-18T07:29:47.011Z,85.5
2018-02-18T07:30:27.567Z,85.31
2018-02-18T07:31:08.116Z,85.6
2018-02-18T07:31:48.675Z,85.5
2018-02-18T07:32:29.226Z,86.07
2018-02-18T07:33:09.779Z,86.07
2018-02-18T07:33:50.336Z,86.07
2018-02-18T07:34:30.907Z,85.69
2018-02-18T07:35:11.461Z,85.5
2018-02-18T07:35:52.011Z,85.03
2018-02-18T07:36:32.594Z,84.55
2018-02-18T07:37:13.135Z,84.65
2018-02-18T07:37:53.691Z,84.55
2018-02-18T07:38:34.256Z,84.17
2018-02-18T07:39:14.816Z,84.65
2018-02-18T07:39:55.379Z,84.74
2018-02-18T07:40:35.943Z,84.65
2018-02-18T07:41:16.508Z,84.55
2018-02-18T07:41:57.066Z,84.65
2018-02-18T07:42:37.659Z,84.94
2018-02-18T07:43:18.206Z,85.13
2018-02-18T07:43:58.925Z,85.22
2018-02-18T07:44:39.479Z,85.5
2018-02-18T07:45:20.034Z,84.84
2018-02-18T07:46:00.580Z,84.84
2018-02-18T07:46:41.144Z,84.55
2018-02-18T07:47:21.705Z,84.94
2018-02-18T07:48:02.257Z,84.65
2018-02-18T07:48:42.809Z,84.94
2018-02-18T07:49:23.378Z,85.03
2018-02-18T07:50:03.935Z,85.13
2018-02-18T07:50:44.492Z,84.88
2018-02-18T07:51:25.054Z,84.69
2018-02-18T07:52:05.636Z,84.98
2018-02-18T07:52:46.204Z,84.22
2018-02-18T07:53:26.768Z,83.94
2018-02-18T07:54:07.327Z,84.41
2018-02-18T07:54:47.885Z,84.31
2018-02-18T07:55:28.427Z,83.65
2018-02-18T07:56:09.040Z,83.65
2018-02-18T07:56:49.621Z,83.55
2018-02-18T07:57:30.175Z,83.74
2018-02-18T07:58:10.700Z,83.46
2018-02-18T07:58:51.263Z,83.84
2018-02-18T07:59:31.809Z,83.36
2018-02-18T08:00:12.376Z,83.4
2018-02-18T08:00:52.942Z,83.03
2018-02-18T08:01:33.502Z,82.74
2018-02-18T08:02:14.054Z,82.79
2018-02-18T08:02:54.612Z,83.46
2018-02-18T08:03:35.167Z,83.17
2018-02-18T08:04:15.736Z,82.98
2018-02-18T08:04:56.362Z,83.08
2018-02-18T08:05:36.922Z,83.08
2018-02-18T08:06:17.609Z,83.46
2018-02-18T08:06:58.145Z,83.46
2018-02-18T08:07:38.777Z,83.08
2018-02-18T08:08:19.312Z,82.98
2018-02-18T08:08:59.869Z,82.42
2018-02-18T08:09:40.425Z,82.42
2018-02-18T08:10:21.055Z,82.32
2018-02-18T08:11:01.710Z,82.13
2018-02-18T08:11:42.348Z,83.17
2018-02-18T08:12:22.905Z,83.65
2018-02-18T08:13:03.704Z,84.31
2018-02-18T08:13:44.217Z,84.5
2018-02-18T08:14:24.779Z,84.22
2018-02-18T08:15:05.361Z,84.5
2018-02-18T08:15:45.920Z,84.12
2018-02-18T08:16:26.459Z,84.03
2018-02-18T08:17:07.035Z,83.46
2018-02-18T08:17:47.634Z,84.12
2018-02-18T08:18:28.204Z,84.78
2018-02-18T08:19:08.771Z,84.59
2018-02-18T08:19:49.350Z,84.69
2018-02-18T08:20:29.912Z,84.69
2018-02-18T08:21:10.500Z,84.22
2018-02-18T08:21:51.058Z,84.88
2018-02-18T08:22:31.614Z,84.59
2018-02-18T08:23:12.171Z,83.94
2018-02-18T08:23:52.732Z,84.22
2018-02-18T08:24:33.286Z,85.07
2018-02-18T08:25:13.854Z,85.17
2018-02-18T08:25:54.444Z,84.12
2018-02-18T08:26:36.230Z,84.59
2018-02-18T08:27:20.994Z,85.36
2018-02-18T08:28:01.554Z,85.07
2018-02-18T08:28:42.106Z,85.45
2018-02-18T08:29:22.657Z,84.59
2018-02-18T08:30:03.215Z,84.41
2018-02-18T08:30:43.768Z,84.22
2018-02-18T08:31:24.321Z,84.22
2018-02-18T08:32:04.889Z,84.41
2018-02-18T08:32:45.440Z,84.98
2018-02-18T08:33:25.997Z,84.98
2018-02-18T08:34:06.552Z,85.45
2018-02-18T08:34:47.137Z,85.17
2018-02-18T08:35:27.680Z,84.88
2018-02-18T08:36:08.271Z,84.5
2018-02-18T08:36:48.811Z,84.22
2018-02-18T08:37:29.377Z,84.22
2018-02-18T08:38:09.953Z,85.07
2018-02-18T08:38:50.527Z,84.69
2018-02-18T08:39:31.090Z,85.45
2018-02-18T08:40:11.647Z,85.26
2018-02-18T08:40:52.224Z,84.98
2018-02-18T08:41:32.810Z,84.69
2018-02-18T08:42:13.357Z,85.07
2018-02-18T08:42:53.949Z,84.88
2018-02-18T08:43:34.758Z,84.98
2018-02-18T08:44:15.360Z,84.59
2018-02-18T08:44:55.947Z,84.78
2018-02-18T08:45:36.553Z,84.78